sensor_id;sensor_type;location;lat;lon;timestamp;temperature;humidity
909;DHT22;441;51.192;6.788;2023-03-04T00:01:27;19.10;45.40
909;DHT22;441;51.192;6.788;2023-03-04T00:03:54;19.10;45.40
909;DHT22;441;51.192;6.788;2023-03-04T00:06:21;19.10;45.50
909;DHT22;441;51.192;6.788;2023-03-04T00:08:48;19.10;45.50
909;DHT22;441;51.192;6.788;2023-03-04T00:11:15;19.10;45.50
909;DHT22;441;51.192;6.788;2023-03-04T00:13:43;19.10;45.50
909;DHT22;441;51.192;6.788;2023-03-04T00:16:10;19.10;45.50
909;DHT22;441;51.192;6.788;2023-03-04T00:18:37;19.00;45.40
909;DHT22;441;51.192;6.788;2023-03-04T00:21:04;19.00;45.50
909;DHT22;441;51.192;6.788;2023-03-04T00:23:31;19.00;45.50
909;DHT22;441;51.192;6.788;2023-03-04T00:25:58;19.00;45.50
909;DHT22;441;51.192;6.788;2023-03-04T00:28:25;19.00;45.50
909;DHT22;441;51.192;6.788;2023-03-04T00:30:53;19.00;45.50
909;DHT22;441;51.192;6.788;2023-03-04T00:33:20;19.00;45.60
909;DHT22;441;51.192;6.788;2023-03-04T00:35:47;18.90;45.50
909;DHT22;441;51.192;6.788;2023-03-04T00:38:14;18.90;45.50
909;DHT22;441;51.192;6.788;2023-03-04T00:40:41;18.90;46.00
909;DHT22;441;51.192;6.788;2023-03-04T00:43:08;18.90;45.50
909;DHT22;441;51.192;6.788;2023-03-04T00:45:35;18.90;45.50
909;DHT22;441;51.192;6.788;2023-03-04T00:48:03;18.90;45.60
909;DHT22;441;51.192;6.788;2023-03-04T00:50:30;18.90;45.60
909;DHT22;441;51.192;6.788;2023-03-04T00:52:57;18.90;45.60
909;DHT22;441;51.192;6.788;2023-03-04T00:55:24;18.90;46.20
909;DHT22;441;51.192;6.788;2023-03-04T00:57:51;18.80;45.60
909;DHT22;441;51.192;6.788;2023-03-04T01:00:19;18.80;45.60
909;DHT22;441;51.192;6.788;2023-03-04T01:02:46;18.80;45.70
909;DHT22;441;51.192;6.788;2023-03-04T01:05:14;18.80;45.70
909;DHT22;441;51.192;6.788;2023-03-04T01:07:41;18.80;45.70
909;DHT22;441;51.192;6.788;2023-03-04T01:10:11;18.80;45.80
909;DHT22;441;51.192;6.788;2023-03-04T01:12:38;18.80;45.80
909;DHT22;441;51.192;6.788;2023-03-04T01:15:07;18.80;45.80
909;DHT22;441;51.192;6.788;2023-03-04T01:17:34;18.70;45.70
909;DHT22;441;51.192;6.788;2023-03-04T01:20:01;18.70;45.70
909;DHT22;441;51.192;6.788;2023-03-04T01:22:29;18.70;45.70
909;DHT22;441;51.192;6.788;2023-03-04T01:24:56;18.70;45.70
909;DHT22;441;51.192;6.788;2023-03-04T01:27:23;18.70;45.60
909;DHT22;441;51.192;6.788;2023-03-04T01:29:50;18.70;45.70
909;DHT22;441;51.192;6.788;2023-03-04T01:32:17;18.70;45.70
909;DHT22;441;51.192;6.788;2023-03-04T01:34:44;18.70;45.80
909;DHT22;441;51.192;6.788;2023-03-04T01:37:11;18.70;45.80
909;DHT22;441;51.192;6.788;2023-03-04T01:39:40;18.70;45.80
909;DHT22;441;51.192;6.788;2023-03-04T01:42:13;18.70;45.80
909;DHT22;441;51.192;6.788;2023-03-04T01:44:43;18.70;45.80
909;DHT22;441;51.192;6.788;2023-03-04T01:47:11;18.70;45.80
909;DHT22;441;51.192;6.788;2023-03-04T01:49:38;18.60;45.70
909;DHT22;441;51.192;6.788;2023-03-04T01:52:08;18.60;45.70
909;DHT22;441;51.192;6.788;2023-03-04T01:54:36;18.60;45.80
909;DHT22;441;51.192;6.788;2023-03-04T01:57:15;18.60;45.70
909;DHT22;441;51.192;6.788;2023-03-04T01:59:43;18.60;45.80
909;DHT22;441;51.192;6.788;2023-03-04T02:02:10;18.60;45.80
909;DHT22;441;51.192;6.788;2023-03-04T02:04:38;18.60;45.80
909;DHT22;441;51.192;6.788;2023-03-04T02:07:06;18.60;45.80
909;DHT22;441;51.192;6.788;2023-03-04T02:09:33;18.60;45.90
909;DHT22;441;51.192;6.788;2023-03-04T02:12:01;18.60;45.90
909;DHT22;441;51.192;6.788;2023-03-04T02:14:29;18.60;45.90
909;DHT22;441;51.192;6.788;2023-03-04T02:16:57;18.50;45.80
909;DHT22;441;51.192;6.788;2023-03-04T02:19:41;18.50;45.80
909;DHT22;441;51.192;6.788;2023-03-04T02:22:10;18.60;45.90
909;DHT22;441;51.192;6.788;2023-03-04T02:24:40;18.50;45.90
909;DHT22;441;51.192;6.788;2023-03-04T02:27:10;18.50;45.80
909;DHT22;441;51.192;6.788;2023-03-04T02:29:36;18.60;46.00
909;DHT22;441;51.192;6.788;2023-03-04T02:32:04;18.50;45.80
909;DHT22;441;51.192;6.788;2023-03-04T02:34:32;18.50;45.90
909;DHT22;441;51.192;6.788;2023-03-04T02:37:01;18.50;45.90
909;DHT22;441;51.192;6.788;2023-03-04T02:39:31;18.50;45.90
909;DHT22;441;51.192;6.788;2023-03-04T02:41:59;18.50;45.90
909;DHT22;441;51.192;6.788;2023-03-04T02:44:29;18.50;45.90
909;DHT22;441;51.192;6.788;2023-03-04T02:46:57;18.50;46.00
909;DHT22;441;51.192;6.788;2023-03-04T02:49:26;18.50;46.00
909;DHT22;441;51.192;6.788;2023-03-04T02:51:59;18.50;46.00
909;DHT22;441;51.192;6.788;2023-03-04T02:54:27;18.50;46.40
909;DHT22;441;51.192;6.788;2023-03-04T02:56:56;18.50;45.90
909;DHT22;441;51.192;6.788;2023-03-04T02:59:23;18.40;45.90
909;DHT22;441;51.192;6.788;2023-03-04T03:01:51;18.50;45.90
909;DHT22;441;51.192;6.788;2023-03-04T03:04:19;18.50;45.90
909;DHT22;441;51.192;6.788;2023-03-04T03:06:47;18.40;45.90
909;DHT22;441;51.192;6.788;2023-03-04T03:09:13;18.40;45.90
909;DHT22;441;51.192;6.788;2023-03-04T03:11:40;18.40;46.00
909;DHT22;441;51.192;6.788;2023-03-04T03:14:08;18.40;46.00
909;DHT22;441;51.192;6.788;2023-03-04T03:16:35;18.40;46.00
909;DHT22;441;51.192;6.788;2023-03-04T03:19:03;18.40;46.00
909;DHT22;441;51.192;6.788;2023-03-04T03:21:30;18.40;46.00
909;DHT22;441;51.192;6.788;2023-03-04T03:23:58;18.40;45.90
909;DHT22;441;51.192;6.788;2023-03-04T03:26:24;18.40;46.00
909;DHT22;441;51.192;6.788;2023-03-04T03:28:51;18.40;46.50
909;DHT22;441;51.192;6.788;2023-03-04T03:31:18;18.40;46.00
909;DHT22;441;51.192;6.788;2023-03-04T03:33:45;18.30;45.90
909;DHT22;441;51.192;6.788;2023-03-04T03:36:13;18.30;45.90
909;DHT22;441;51.192;6.788;2023-03-04T03:38:40;18.40;46.00
909;DHT22;441;51.192;6.788;2023-03-04T03:41:07;18.40;46.00
909;DHT22;441;51.192;6.788;2023-03-04T03:43:34;18.30;45.90
909;DHT22;441;51.192;6.788;2023-03-04T03:46:01;18.30;46.00
909;DHT22;441;51.192;6.788;2023-03-04T03:48:28;18.30;46.00
909;DHT22;441;51.192;6.788;2023-03-04T03:50:55;18.30;46.00
909;DHT22;441;51.192;6.788;2023-03-04T03:53:23;18.30;46.00
909;DHT22;441;51.192;6.788;2023-03-04T03:55:50;18.30;46.00
909;DHT22;441;51.192;6.788;2023-03-04T03:58:17;18.30;46.10
909;DHT22;441;51.192;6.788;2023-03-04T04:00:43;18.30;46.10
909;DHT22;441;51.192;6.788;2023-03-04T04:03:12;18.30;46.10
909;DHT22;441;51.192;6.788;2023-03-04T04:05:40;18.30;46.10
909;DHT22;441;51.192;6.788;2023-03-04T04:08:08;18.30;46.10
909;DHT22;441;51.192;6.788;2023-03-04T04:10:37;18.30;46.20
909;DHT22;441;51.192;6.788;2023-03-04T04:13:03;18.30;46.10
909;DHT22;441;51.192;6.788;2023-03-04T04:15:30;18.30;46.10
909;DHT22;441;51.192;6.788;2023-03-04T04:17:57;18.30;46.20
909;DHT22;441;51.192;6.788;2023-03-04T04:20:24;18.20;46.10
909;DHT22;441;51.192;6.788;2023-03-04T04:22:51;18.30;46.20
909;DHT22;441;51.192;6.788;2023-03-04T04:25:18;18.20;46.20
909;DHT22;441;51.192;6.788;2023-03-04T04:27:46;18.20;46.20
909;DHT22;441;51.192;6.788;2023-03-04T04:30:13;18.20;46.10
909;DHT22;441;51.192;6.788;2023-03-04T04:32:40;18.20;46.20
909;DHT22;441;51.192;6.788;2023-03-04T04:35:07;18.20;46.10
909;DHT22;441;51.192;6.788;2023-03-04T04:37:34;18.20;46.20
909;DHT22;441;51.192;6.788;2023-03-04T04:40:01;18.20;46.20
909;DHT22;441;51.192;6.788;2023-03-04T04:42:29;18.20;46.20
909;DHT22;441;51.192;6.788;2023-03-04T04:44:57;18.20;46.20
909;DHT22;441;51.192;6.788;2023-03-04T04:47:24;18.20;46.20
909;DHT22;441;51.192;6.788;2023-03-04T04:49:51;18.20;46.20
909;DHT22;441;51.192;6.788;2023-03-04T04:52:18;18.20;46.20
909;DHT22;441;51.192;6.788;2023-03-04T04:54:45;18.20;46.20
909;DHT22;441;51.192;6.788;2023-03-04T04:57:11;18.20;46.20
909;DHT22;441;51.192;6.788;2023-03-04T04:59:38;18.20;46.20
909;DHT22;441;51.192;6.788;2023-03-04T05:02:06;18.20;46.20
909;DHT22;441;51.192;6.788;2023-03-04T05:04:33;18.20;46.20
909;DHT22;441;51.192;6.788;2023-03-04T05:07:00;18.20;46.30
909;DHT22;441;51.192;6.788;2023-03-04T05:09:27;18.20;46.20
909;DHT22;441;51.192;6.788;2023-03-04T05:11:54;18.10;46.10
909;DHT22;441;51.192;6.788;2023-03-04T05:14:21;18.20;46.20
909;DHT22;441;51.192;6.788;2023-03-04T05:16:48;18.20;46.30
909;DHT22;441;51.192;6.788;2023-03-04T05:19:18;18.20;46.20
909;DHT22;441;51.192;6.788;2023-03-04T05:21:46;18.20;46.20
909;DHT22;441;51.192;6.788;2023-03-04T05:24:12;18.10;46.20
909;DHT22;441;51.192;6.788;2023-03-04T05:26:39;18.10;46.20
909;DHT22;441;51.192;6.788;2023-03-04T05:29:06;18.20;46.30
909;DHT22;441;51.192;6.788;2023-03-04T05:31:33;18.20;46.30
909;DHT22;441;51.192;6.788;2023-03-04T05:34:00;18.20;46.30
909;DHT22;441;51.192;6.788;2023-03-04T05:36:28;18.10;46.30
909;DHT22;441;51.192;6.788;2023-03-04T05:38:55;18.20;46.30
909;DHT22;441;51.192;6.788;2023-03-04T05:41:22;18.10;46.30
909;DHT22;441;51.192;6.788;2023-03-04T05:43:50;18.10;46.30
909;DHT22;441;51.192;6.788;2023-03-04T05:46:18;18.10;46.30
909;DHT22;441;51.192;6.788;2023-03-04T05:48:50;18.20;46.40
909;DHT22;441;51.192;6.788;2023-03-04T05:51:17;18.10;46.30
909;DHT22;441;51.192;6.788;2023-03-04T05:53:45;18.10;46.40
909;DHT22;441;51.192;6.788;2023-03-04T05:56:14;18.20;46.20
909;DHT22;441;51.192;6.788;2023-03-04T05:58:42;18.20;46.00
909;DHT22;441;51.192;6.788;2023-03-04T06:01:12;18.20;46.00
909;DHT22;441;51.192;6.788;2023-03-04T06:03:39;18.20;46.00
909;DHT22;441;51.192;6.788;2023-03-04T06:06:08;18.20;46.10
909;DHT22;441;51.192;6.788;2023-03-04T06:08:34;18.20;46.20
909;DHT22;441;51.192;6.788;2023-03-04T06:11:03;18.20;46.30
909;DHT22;441;51.192;6.788;2023-03-04T06:13:30;18.20;46.30
909;DHT22;441;51.192;6.788;2023-03-04T06:15:58;18.20;46.40
909;DHT22;441;51.192;6.788;2023-03-04T06:18:26;18.20;46.30
909;DHT22;441;51.192;6.788;2023-03-04T06:20:55;18.20;46.10
909;DHT22;441;51.192;6.788;2023-03-04T06:23:24;18.30;46.10
909;DHT22;441;51.192;6.788;2023-03-04T06:25:52;18.30;46.50
909;DHT22;441;51.192;6.788;2023-03-04T06:28:21;18.50;46.60
909;DHT22;441;51.192;6.788;2023-03-04T06:30:50;18.60;46.40
909;DHT22;441;51.192;6.788;2023-03-04T06:33:16;18.60;46.10
909;DHT22;441;51.192;6.788;2023-03-04T06:35:43;18.70;46.00
909;DHT22;441;51.192;6.788;2023-03-04T06:38:10;18.70;45.90
909;DHT22;441;51.192;6.788;2023-03-04T06:40:37;18.80;45.80
909;DHT22;441;51.192;6.788;2023-03-04T06:43:04;18.80;45.80
909;DHT22;441;51.192;6.788;2023-03-04T06:45:32;18.80;45.70
909;DHT22;441;51.192;6.788;2023-03-04T06:47:59;18.90;45.60
909;DHT22;441;51.192;6.788;2023-03-04T06:50:26;18.90;45.60
909;DHT22;441;51.192;6.788;2023-03-04T06:52:55;18.90;45.50
909;DHT22;441;51.192;6.788;2023-03-04T06:55:22;19.00;45.60
909;DHT22;441;51.192;6.788;2023-03-04T06:57:49;19.00;45.50
909;DHT22;441;51.192;6.788;2023-03-04T07:00:17;19.00;45.50
909;DHT22;441;51.192;6.788;2023-03-04T07:02:46;19.00;45.40
909;DHT22;441;51.192;6.788;2023-03-04T07:05:17;19.10;45.40
909;DHT22;441;51.192;6.788;2023-03-04T07:07:44;19.10;45.50
909;DHT22;441;51.192;6.788;2023-03-04T07:10:11;19.10;45.40
909;DHT22;441;51.192;6.788;2023-03-04T07:12:38;19.10;45.30
909;DHT22;441;51.192;6.788;2023-03-04T07:15:06;19.20;45.40
909;DHT22;441;51.192;6.788;2023-03-04T07:17:33;19.10;45.30
909;DHT22;441;51.192;6.788;2023-03-04T07:20:01;19.10;45.30
909;DHT22;441;51.192;6.788;2023-03-04T07:22:28;19.10;45.30
909;DHT22;441;51.192;6.788;2023-03-04T07:24:55;19.10;45.20
909;DHT22;441;51.192;6.788;2023-03-04T07:27:22;19.10;45.20
909;DHT22;441;51.192;6.788;2023-03-04T07:29:50;19.20;45.30
909;DHT22;441;51.192;6.788;2023-03-04T07:32:16;19.20;45.20
909;DHT22;441;51.192;6.788;2023-03-04T07:34:43;19.30;45.70
909;DHT22;441;51.192;6.788;2023-03-04T07:37:12;19.30;45.10
909;DHT22;441;51.192;6.788;2023-03-04T07:39:38;19.30;45.00
909;DHT22;441;51.192;6.788;2023-03-04T07:42:05;19.30;45.00
909;DHT22;441;51.192;6.788;2023-03-04T07:44:32;19.30;44.90
909;DHT22;441;51.192;6.788;2023-03-04T07:46:59;19.30;44.90
909;DHT22;441;51.192;6.788;2023-03-04T07:49:26;19.40;44.90
909;DHT22;441;51.192;6.788;2023-03-04T07:51:53;19.40;44.90
909;DHT22;441;51.192;6.788;2023-03-04T07:54:22;19.40;44.90
909;DHT22;441;51.192;6.788;2023-03-04T07:56:49;19.50;45.10
909;DHT22;441;51.192;6.788;2023-03-04T07:59:18;19.40;44.80
909;DHT22;441;51.192;6.788;2023-03-04T08:01:45;19.40;44.70
909;DHT22;441;51.192;6.788;2023-03-04T08:04:12;19.40;44.70
909;DHT22;441;51.192;6.788;2023-03-04T08:06:40;19.40;44.70
909;DHT22;441;51.192;6.788;2023-03-04T08:09:07;19.40;44.80
909;DHT22;441;51.192;6.788;2023-03-04T08:11:36;19.50;44.80
909;DHT22;441;51.192;6.788;2023-03-04T08:14:04;19.60;44.80
909;DHT22;441;51.192;6.788;2023-03-04T08:16:31;19.60;44.90
909;DHT22;441;51.192;6.788;2023-03-04T08:19:00;19.70;44.90
909;DHT22;441;51.192;6.788;2023-03-04T08:21:28;19.70;44.90
909;DHT22;441;51.192;6.788;2023-03-04T08:23:56;19.70;45.10
909;DHT22;441;51.192;6.788;2023-03-04T08:26:25;19.80;45.30
909;DHT22;441;51.192;6.788;2023-03-04T08:28:55;19.90;45.90
909;DHT22;441;51.192;6.788;2023-03-04T08:31:23;20.00;45.90
909;DHT22;441;51.192;6.788;2023-03-04T08:33:50;20.00;45.70
909;DHT22;441;51.192;6.788;2023-03-04T08:36:17;20.00;45.70
909;DHT22;441;51.192;6.788;2023-03-04T08:38:44;20.00;45.70
909;DHT22;441;51.192;6.788;2023-03-04T08:41:12;20.00;46.20
909;DHT22;441;51.192;6.788;2023-03-04T08:43:40;20.10;45.60
909;DHT22;441;51.192;6.788;2023-03-04T08:46:08;20.10;45.70
909;DHT22;441;51.192;6.788;2023-03-04T08:48:36;20.10;45.70
909;DHT22;441;51.192;6.788;2023-03-04T08:51:07;20.20;45.80
909;DHT22;441;51.192;6.788;2023-03-04T08:53:34;20.20;45.70
909;DHT22;441;51.192;6.788;2023-03-04T08:56:02;20.20;45.60
909;DHT22;441;51.192;6.788;2023-03-04T08:58:29;20.20;45.40
909;DHT22;441;51.192;6.788;2023-03-04T09:00:59;20.20;45.50
909;DHT22;441;51.192;6.788;2023-03-04T09:03:27;20.20;45.30
909;DHT22;441;51.192;6.788;2023-03-04T09:05:57;20.20;45.30
909;DHT22;441;51.192;6.788;2023-03-04T09:08:24;20.30;45.40
909;DHT22;441;51.192;6.788;2023-03-04T09:10:52;20.30;45.60
909;DHT22;441;51.192;6.788;2023-03-04T09:13:19;20.40;45.90
909;DHT22;441;51.192;6.788;2023-03-04T09:15:48;20.40;45.90
909;DHT22;441;51.192;6.788;2023-03-04T09:18:16;20.60;45.90
909;DHT22;441;51.192;6.788;2023-03-04T09:20:45;20.60;45.80
909;DHT22;441;51.192;6.788;2023-03-04T09:23:12;20.60;45.90
909;DHT22;441;51.192;6.788;2023-03-04T09:25:39;20.60;45.70
909;DHT22;441;51.192;6.788;2023-03-04T09:28:06;20.70;45.80
909;DHT22;441;51.192;6.788;2023-03-04T09:30:33;20.60;45.60
909;DHT22;441;51.192;6.788;2023-03-04T09:33:00;20.60;46.80
909;DHT22;441;51.192;6.788;2023-03-04T09:35:27;20.60;46.80
909;DHT22;441;51.192;6.788;2023-03-04T09:37:57;20.60;46.50
909;DHT22;441;51.192;6.788;2023-03-04T09:40:26;20.60;46.50
909;DHT22;441;51.192;6.788;2023-03-04T09:42:55;20.60;46.40
909;DHT22;441;51.192;6.788;2023-03-04T09:45:28;20.60;46.30
909;DHT22;441;51.192;6.788;2023-03-04T09:47:56;20.60;46.20
909;DHT22;441;51.192;6.788;2023-03-04T09:50:24;20.50;46.40
909;DHT22;441;51.192;6.788;2023-03-04T09:53:05;20.50;46.50
909;DHT22;441;51.192;6.788;2023-03-04T09:55:35;20.50;46.50
909;DHT22;441;51.192;6.788;2023-03-04T09:58:08;20.50;46.70
909;DHT22;441;51.192;6.788;2023-03-04T10:00:41;20.60;46.60
909;DHT22;441;51.192;6.788;2023-03-04T10:03:16;20.60;46.60
909;DHT22;441;51.192;6.788;2023-03-04T10:05:50;20.60;46.70
909;DHT22;441;51.192;6.788;2023-03-04T10:08:36;20.60;46.80
909;DHT22;441;51.192;6.788;2023-03-04T10:11:12;20.60;47.00
909;DHT22;441;51.192;6.788;2023-03-04T10:13:45;20.60;46.80
909;DHT22;441;51.192;6.788;2023-03-04T10:16:17;20.50;46.80
909;DHT22;441;51.192;6.788;2023-03-04T10:18:48;20.60;47.00
909;DHT22;441;51.192;6.788;2023-03-04T10:21:22;20.60;46.80
909;DHT22;441;51.192;6.788;2023-03-04T10:23:51;20.60;46.80
909;DHT22;441;51.192;6.788;2023-03-04T10:26:20;20.60;47.00
909;DHT22;441;51.192;6.788;2023-03-04T10:28:47;20.60;47.10
909;DHT22;441;51.192;6.788;2023-03-04T10:31:19;20.60;47.20
909;DHT22;441;51.192;6.788;2023-03-04T10:33:48;20.60;48.10
909;DHT22;441;51.192;6.788;2023-03-04T10:36:35;20.60;47.40
909;DHT22;441;51.192;6.788;2023-03-04T10:39:08;20.70;47.30
909;DHT22;441;51.192;6.788;2023-03-04T10:41:36;20.80;47.30
909;DHT22;441;51.192;6.788;2023-03-04T10:44:14;20.70;47.20
909;DHT22;441;51.192;6.788;2023-03-04T10:46:43;20.70;47.40
909;DHT22;441;51.192;6.788;2023-03-04T10:49:11;20.70;47.30
909;DHT22;441;51.192;6.788;2023-03-04T10:51:43;20.70;47.20
909;DHT22;441;51.192;6.788;2023-03-04T10:54:25;20.60;47.20
909;DHT22;441;51.192;6.788;2023-03-04T10:56:55;20.70;47.30
909;DHT22;441;51.192;6.788;2023-03-04T10:59:29;20.70;47.30
909;DHT22;441;51.192;6.788;2023-03-04T11:01:58;20.70;47.40
909;DHT22;441;51.192;6.788;2023-03-04T11:04:27;20.60;47.40
909;DHT22;441;51.192;6.788;2023-03-04T11:06:58;20.70;47.90
909;DHT22;441;51.192;6.788;2023-03-04T11:09:28;20.80;47.70
909;DHT22;441;51.192;6.788;2023-03-04T11:11:58;20.80;47.50
909;DHT22;441;51.192;6.788;2023-03-04T11:14:29;20.90;47.40
909;DHT22;441;51.192;6.788;2023-03-04T11:16:58;20.90;47.10
909;DHT22;441;51.192;6.788;2023-03-04T11:19:30;20.90;47.00
909;DHT22;441;51.192;6.788;2023-03-04T11:22:02;20.80;46.90
909;DHT22;441;51.192;6.788;2023-03-04T11:24:33;20.80;47.00
909;DHT22;441;51.192;6.788;2023-03-04T11:27:04;20.70;47.00
909;DHT22;441;51.192;6.788;2023-03-04T11:29:37;20.70;47.10
909;DHT22;441;51.192;6.788;2023-03-04T11:32:12;20.70;47.20
909;DHT22;441;51.192;6.788;2023-03-04T11:34:43;20.60;47.20
909;DHT22;441;51.192;6.788;2023-03-04T11:37:17;20.60;47.30
909;DHT22;441;51.192;6.788;2023-03-04T11:39:51;20.60;47.40
909;DHT22;441;51.192;6.788;2023-03-04T11:42:25;20.60;47.40
909;DHT22;441;51.192;6.788;2023-03-04T11:44:54;20.50;48.00
909;DHT22;441;51.192;6.788;2023-03-04T11:47:35;20.50;48.20
909;DHT22;441;51.192;6.788;2023-03-04T11:53:27;20.50;48.60
909;DHT22;441;51.192;6.788;2023-03-04T11:56:08;20.50;48.60
909;DHT22;441;51.192;6.788;2023-03-04T11:58:46;20.50;48.50
909;DHT22;441;51.192;6.788;2023-03-04T12:01:24;20.50;48.40
909;DHT22;441;51.192;6.788;2023-03-04T12:04:03;20.60;48.40
909;DHT22;441;51.192;6.788;2023-03-04T12:06:42;20.60;48.20
909;DHT22;441;51.192;6.788;2023-03-04T12:09:26;20.60;48.30
909;DHT22;441;51.192;6.788;2023-03-04T12:12:04;20.60;48.30
909;DHT22;441;51.192;6.788;2023-03-04T12:14:39;20.60;48.30
909;DHT22;441;51.192;6.788;2023-03-04T12:17:30;20.60;48.30
909;DHT22;441;51.192;6.788;2023-03-04T12:23:06;20.70;48.20
909;DHT22;441;51.192;6.788;2023-03-04T12:25:41;20.70;48.00
909;DHT22;441;51.192;6.788;2023-03-04T12:28:39;20.70;48.00
909;DHT22;441;51.192;6.788;2023-03-04T12:31:29;20.60;47.80
909;DHT22;441;51.192;6.788;2023-03-04T12:36:51;20.70;47.50
909;DHT22;441;51.192;6.788;2023-03-04T12:39:26;20.70;47.60
909;DHT22;441;51.192;6.788;2023-03-04T12:42:04;20.70;47.70
909;DHT22;441;51.192;6.788;2023-03-04T12:44:36;20.80;47.70
909;DHT22;441;51.192;6.788;2023-03-04T12:47:16;20.80;47.60
909;DHT22;441;51.192;6.788;2023-03-04T12:49:58;20.80;47.70
909;DHT22;441;51.192;6.788;2023-03-04T12:52:35;20.80;47.90
909;DHT22;441;51.192;6.788;2023-03-04T12:55:09;20.90;48.00
909;DHT22;441;51.192;6.788;2023-03-04T12:57:38;21.00;49.10
909;DHT22;441;51.192;6.788;2023-03-04T13:00:18;20.90;51.80
909;DHT22;441;51.192;6.788;2023-03-04T13:03:10;20.90;52.40
909;DHT22;441;51.192;6.788;2023-03-04T13:05:49;21.00;53.30
909;DHT22;441;51.192;6.788;2023-03-04T13:08:28;21.00;52.90
909;DHT22;441;51.192;6.788;2023-03-04T13:11:00;20.90;53.20
909;DHT22;441;51.192;6.788;2023-03-04T13:13:39;20.90;53.40
909;DHT22;441;51.192;6.788;2023-03-04T13:16:27;20.80;51.70
909;DHT22;441;51.192;6.788;2023-03-04T13:18:55;20.80;53.10
909;DHT22;441;51.192;6.788;2023-03-04T13:21:24;20.80;52.80
909;DHT22;441;51.192;6.788;2023-03-04T13:23:52;20.80;52.90
909;DHT22;441;51.192;6.788;2023-03-04T13:26:27;20.80;52.70
909;DHT22;441;51.192;6.788;2023-03-04T13:29:10;20.80;52.60
909;DHT22;441;51.192;6.788;2023-03-04T13:31:59;20.80;52.70
909;DHT22;441;51.192;6.788;2023-03-04T13:34:48;20.70;52.90
909;DHT22;441;51.192;6.788;2023-03-04T13:37:30;20.70;52.60
909;DHT22;441;51.192;6.788;2023-03-04T13:40:28;20.60;52.00
909;DHT22;441;51.192;6.788;2023-03-04T13:43:20;20.60;52.20
909;DHT22;441;51.192;6.788;2023-03-04T13:45:49;20.70;52.30
909;DHT22;441;51.192;6.788;2023-03-04T13:48:35;20.60;51.30
909;DHT22;441;51.192;6.788;2023-03-04T13:51:03;20.60;51.50
909;DHT22;441;51.192;6.788;2023-03-04T13:53:37;20.60;51.50
909;DHT22;441;51.192;6.788;2023-03-04T13:56:27;20.60;51.30
909;DHT22;441;51.192;6.788;2023-03-04T13:59:09;20.60;51.40
909;DHT22;441;51.192;6.788;2023-03-04T14:01:49;20.60;51.50
909;DHT22;441;51.192;6.788;2023-03-04T14:04:25;20.50;51.40
909;DHT22;441;51.192;6.788;2023-03-04T14:06:53;20.50;51.20
909;DHT22;441;51.192;6.788;2023-03-04T14:09:24;20.50;51.10
909;DHT22;441;51.192;6.788;2023-03-04T14:11:55;20.40;51.10
909;DHT22;441;51.192;6.788;2023-03-04T14:14:25;20.50;51.10
909;DHT22;441;51.192;6.788;2023-03-04T14:16:55;20.40;51.00
909;DHT22;441;51.192;6.788;2023-03-04T14:19:27;20.50;51.50
909;DHT22;441;51.192;6.788;2023-03-04T14:21:55;20.50;51.60
909;DHT22;441;51.192;6.788;2023-03-04T14:24:23;20.60;51.40
909;DHT22;441;51.192;6.788;2023-03-04T14:26:57;20.60;51.30
909;DHT22;441;51.192;6.788;2023-03-04T14:29:30;20.60;51.10
909;DHT22;441;51.192;6.788;2023-03-04T14:31:59;20.60;51.00
909;DHT22;441;51.192;6.788;2023-03-04T14:34:31;20.60;51.10
909;DHT22;441;51.192;6.788;2023-03-04T14:37:00;20.60;51.00
909;DHT22;441;51.192;6.788;2023-03-04T14:39:30;20.60;50.80
909;DHT22;441;51.192;6.788;2023-03-04T14:42:00;20.60;50.80
909;DHT22;441;51.192;6.788;2023-03-04T14:44:32;20.60;50.70
909;DHT22;441;51.192;6.788;2023-03-04T14:47:09;20.60;50.80
909;DHT22;441;51.192;6.788;2023-03-04T14:49:38;20.60;50.70
909;DHT22;441;51.192;6.788;2023-03-04T14:52:06;20.60;50.70
909;DHT22;441;51.192;6.788;2023-03-04T14:54:34;20.70;50.70
909;DHT22;441;51.192;6.788;2023-03-04T14:57:20;20.70;50.50
909;DHT22;441;51.192;6.788;2023-03-04T14:59:49;20.70;50.20
909;DHT22;441;51.192;6.788;2023-03-04T15:02:27;20.70;50.80
909;DHT22;441;51.192;6.788;2023-03-04T15:05:09;20.70;50.20
909;DHT22;441;51.192;6.788;2023-03-04T15:07:37;20.70;50.10
909;DHT22;441;51.192;6.788;2023-03-04T15:10:07;20.60;50.20
909;DHT22;441;51.192;6.788;2023-03-04T15:12:39;20.60;50.40
909;DHT22;441;51.192;6.788;2023-03-04T15:15:31;20.50;50.50
909;DHT22;441;51.192;6.788;2023-03-04T15:17:59;20.50;50.50
909;DHT22;441;51.192;6.788;2023-03-04T15:20:30;20.50;50.40
909;DHT22;441;51.192;6.788;2023-03-04T15:23:02;20.60;50.50
909;DHT22;441;51.192;6.788;2023-03-04T15:25:32;20.60;50.40
909;DHT22;441;51.192;6.788;2023-03-04T15:27:59;20.60;50.20
909;DHT22;441;51.192;6.788;2023-03-04T15:30:27;20.60;50.10
909;DHT22;441;51.192;6.788;2023-03-04T15:32:55;20.80;50.00
909;DHT22;441;51.192;6.788;2023-03-04T15:35:23;20.80;49.60
909;DHT22;441;51.192;6.788;2023-03-04T15:37:52;20.80;49.50
909;DHT22;441;51.192;6.788;2023-03-04T15:40:26;20.80;49.60
909;DHT22;441;51.192;6.788;2023-03-04T15:42:54;20.70;49.60
909;DHT22;441;51.192;6.788;2023-03-04T15:45:24;20.70;49.70
909;DHT22;441;51.192;6.788;2023-03-04T15:47:51;20.80;50.10
909;DHT22;441;51.192;6.788;2023-03-04T15:50:19;20.90;50.20
909;DHT22;441;51.192;6.788;2023-03-04T15:52:47;20.90;49.60
909;DHT22;441;51.192;6.788;2023-03-04T15:55:17;21.00;49.40
909;DHT22;441;51.192;6.788;2023-03-04T15:57:47;21.10;49.50
909;DHT22;441;51.192;6.788;2023-03-04T16:00:16;21.10;49.50
909;DHT22;441;51.192;6.788;2023-03-04T16:02:43;21.10;49.20
909;DHT22;441;51.192;6.788;2023-03-04T16:05:11;21.20;48.90
909;DHT22;441;51.192;6.788;2023-03-04T16:07:38;21.00;48.40
909;DHT22;441;51.192;6.788;2023-03-04T16:10:11;21.00;48.70
909;DHT22;441;51.192;6.788;2023-03-04T16:12:42;21.20;48.90
909;DHT22;441;51.192;6.788;2023-03-04T16:15:13;21.20;48.80
909;DHT22;441;51.192;6.788;2023-03-04T16:17:40;21.30;48.90
909;DHT22;441;51.192;6.788;2023-03-04T16:20:10;21.10;48.00
909;DHT22;441;51.192;6.788;2023-03-04T16:22:38;21.00;48.20
909;DHT22;441;51.192;6.788;2023-03-04T16:25:09;20.80;48.20
909;DHT22;441;51.192;6.788;2023-03-04T16:27:37;20.90;48.30
909;DHT22;441;51.192;6.788;2023-03-04T16:30:08;20.90;48.60
909;DHT22;441;51.192;6.788;2023-03-04T16:32:38;21.00;49.10
909;DHT22;441;51.192;6.788;2023-03-04T16:35:06;21.10;49.00
909;DHT22;441;51.192;6.788;2023-03-04T16:37:33;21.20;49.00
909;DHT22;441;51.192;6.788;2023-03-04T16:40:00;21.10;48.60
909;DHT22;441;51.192;6.788;2023-03-04T16:42:27;21.00;48.40
909;DHT22;441;51.192;6.788;2023-03-04T16:44:54;21.10;49.20
909;DHT22;441;51.192;6.788;2023-03-04T16:47:22;21.20;50.00
909;DHT22;441;51.192;6.788;2023-03-04T16:49:49;21.20;49.40
909;DHT22;441;51.192;6.788;2023-03-04T16:52:21;21.20;50.10
909;DHT22;441;51.192;6.788;2023-03-04T16:54:49;21.30;50.70
909;DHT22;441;51.192;6.788;2023-03-04T16:57:16;21.30;50.40
909;DHT22;441;51.192;6.788;2023-03-04T16:59:43;21.40;50.20
909;DHT22;441;51.192;6.788;2023-03-04T17:02:13;21.30;49.80